BVN7356 KHSV-KMEM
Flight info
| Callsign | BVN7356 |
|---|---|
| Flight time | 1h 29m |
| Altitude | 8000 |
| Route | DIRECT |
| Aircraft | C208/L-VGDW/C |
Departure
| Time | 2026-05-06 01:04 |
|---|---|
| Airport | Huntsville International Airport (KHSV) |
Arrival
| Time | 2026-05-06 02:34 |
|---|---|
| Airport | Memphis International Airport (KMEM) |
| Time | Latitude | Longitude | Altitude | Speed | Heading |
|---|---|---|---|---|---|
| 2026-05-06 00:50 | 34.64306 | -86.76258 | 589 ft | 0 kts | 91° |
| 2026-05-06 01:01 | 34.64306 | -86.76255 | 579 ft | 2 kts | 78° |
| 2026-05-06 01:01 | 34.64337 | -86.76257 | 590 ft | 9 kts | 310° |
| 2026-05-06 01:01 | 34.64384 | -86.76313 | 589 ft | 10 kts | 320° |
| 2026-05-06 01:02 | 34.64437 | -86.76368 | 590 ft | 10 kts | 318° |
| 2026-05-06 01:02 | 34.64474 | -86.76419 | 592 ft | 6 kts | 299° |
| 2026-05-06 01:02 | 34.64483 | -86.76446 | 593 ft | 0 kts | 283° |
| 2026-05-06 01:02 | 34.64484 | -86.76480 | 596 ft | 6 kts | 271° |
| 2026-05-06 01:03 | 34.64467 | -86.76550 | 600 ft | 10 kts | 208° |
| 2026-05-06 01:03 | 34.64327 | -86.76566 | 597 ft | 46 kts | 181° |
| 2026-05-06 01:03 | 34.63835 | -86.76576 | 621 ft | 87 kts | 180° |
| 2026-05-06 01:03 | 34.63175 | -86.76566 | 761 ft | 101 kts | 179° |
| 2026-05-06 01:04 | 34.62463 | -86.76552 | 1016 ft | 99 kts | 178° |
| 2026-05-06 01:04 | 34.61788 | -86.76517 | 1321 ft | 96 kts | 180° |
| 2026-05-06 01:04 | 34.61127 | -86.76505 | 1654 ft | 93 kts | 180° |
| 2026-05-06 01:04 | 34.60503 | -86.76490 | 1987 ft | 88 kts | 180° |
| 2026-05-06 01:05 | 34.59871 | -86.76461 | 2228 ft | 92 kts | 180° |
| 2026-05-06 01:05 | 34.59223 | -86.76426 | 2482 ft | 94 kts | 181° |
| 2026-05-06 01:05 | 34.58572 | -86.76382 | 2734 ft | 93 kts | 180° |
| 2026-05-06 01:05 | 34.57942 | -86.76329 | 2994 ft | 90 kts | 180° |
| 2026-05-06 01:06 | 34.57328 | -86.76266 | 3283 ft | 87 kts | 180° |
| 2026-05-06 01:06 | 34.56721 | -86.76189 | 3566 ft | 88 kts | 180° |
| 2026-05-06 01:06 | 34.56103 | -86.76088 | 3870 ft | 91 kts | 181° |
| 2026-05-06 01:06 | 34.55479 | -86.76058 | 4159 ft | 87 kts | 203° |
| 2026-05-06 01:07 | 34.54967 | -86.76434 | 4471 ft | 85 kts | 219° |
| 2026-05-06 01:07 | 34.54623 | -86.77003 | 4764 ft | 85 kts | 239° |
| 2026-05-06 01:07 | 34.54495 | -86.77715 | 5055 ft | 90 kts | 258° |
| 2026-05-06 01:07 | 34.54569 | -86.78475 | 5345 ft | 89 kts | 263° |
| 2026-05-06 01:08 | 34.54634 | -86.79215 | 5640 ft | 89 kts | 265° |
| 2026-05-06 01:08 | 34.54704 | -86.79955 | 5939 ft | 88 kts | 265° |
| 2026-05-06 01:08 | 34.54774 | -86.80690 | 6242 ft | 87 kts | 266° |
| 2026-05-06 01:08 | 34.54843 | -86.81418 | 6530 ft | 86 kts | 266° |
| 2026-05-06 01:09 | 34.54910 | -86.82133 | 6806 ft | 86 kts | 267° |
| 2026-05-06 01:09 | 34.54977 | -86.82856 | 7089 ft | 86 kts | 268° |
| 2026-05-06 01:09 | 34.55045 | -86.83585 | 7373 ft | 87 kts | 268° |
| 2026-05-06 01:09 | 34.55113 | -86.84318 | 7662 ft | 87 kts | 269° |
| 2026-05-06 01:10 | 34.55183 | -86.85058 | 7917 ft | 89 kts | 270° |
| 2026-05-06 01:10 | 34.55253 | -86.85843 | 8014 ft | 104 kts | 270° |
| 2026-05-06 01:10 | 34.55339 | -86.86769 | 8013 ft | 116 kts | 270° |
| 2026-05-06 01:10 | 34.55435 | -86.87781 | 8011 ft | 123 kts | 271° |
| 2026-05-06 01:11 | 34.55534 | -86.88837 | 8013 ft | 127 kts | 271° |
| 2026-05-06 01:11 | 34.55634 | -86.89903 | 8008 ft | 129 kts | 271° |
| 2026-05-06 01:11 | 34.55736 | -86.90994 | 8010 ft | 130 kts | 271° |
| 2026-05-06 01:11 | 34.55838 | -86.92085 | 8007 ft | 130 kts | 271° |
| 2026-05-06 01:12 | 34.55940 | -86.93175 | 8008 ft | 130 kts | 271° |
| 2026-05-06 01:12 | 34.56040 | -86.94258 | 8007 ft | 131 kts | 271° |
| 2026-05-06 01:12 | 34.56142 | -86.95358 | 8009 ft | 131 kts | 271° |
| 2026-05-06 01:12 | 34.56244 | -86.96457 | 8008 ft | 131 kts | 271° |
| 2026-05-06 01:13 | 34.56346 | -86.97553 | 8007 ft | 130 kts | 271° |
| 2026-05-06 01:13 | 34.56446 | -86.98636 | 8009 ft | 130 kts | 271° |
| 2026-05-06 01:13 | 34.56546 | -86.99728 | 8007 ft | 130 kts | 271° |
| 2026-05-06 01:13 | 34.56648 | -87.00821 | 8007 ft | 130 kts | 271° |
| 2026-05-06 01:14 | 34.56848 | -87.02996 | 8007 ft | 129 kts | 271° |
| 2026-05-06 01:14 | 34.56948 | -87.04083 | 8008 ft | 130 kts | 271° |
| 2026-05-06 01:14 | 34.57048 | -87.05167 | 8011 ft | 131 kts | 271° |
| 2026-05-06 01:15 | 34.57149 | -87.06266 | 8006 ft | 131 kts | 271° |
| 2026-05-06 01:15 | 34.57250 | -87.07369 | 8007 ft | 132 kts | 271° |
| 2026-05-06 01:15 | 34.57351 | -87.08477 | 8008 ft | 132 kts | 271° |
| 2026-05-06 01:15 | 34.57454 | -87.09591 | 8006 ft | 133 kts | 270° |
| 2026-05-06 01:16 | 34.57555 | -87.10706 | 8008 ft | 132 kts | 270° |
| 2026-05-06 01:16 | 34.57656 | -87.11807 | 8007 ft | 132 kts | 270° |
| 2026-05-06 01:16 | 34.57758 | -87.12921 | 8007 ft | 133 kts | 270° |
| 2026-05-06 01:16 | 34.57859 | -87.14032 | 8004 ft | 132 kts | 271° |
| 2026-05-06 01:17 | 34.57960 | -87.15131 | 8002 ft | 130 kts | 270° |
| 2026-05-06 01:17 | 34.58058 | -87.16206 | 8000 ft | 129 kts | 270° |
| 2026-05-06 01:17 | 34.58156 | -87.17289 | 7998 ft | 129 kts | 270° |
| 2026-05-06 01:17 | 34.58254 | -87.18378 | 8001 ft | 130 kts | 271° |
| 2026-05-06 01:18 | 34.58353 | -87.19480 | 8005 ft | 132 kts | 271° |
| 2026-05-06 01:18 | 34.58455 | -87.20588 | 8003 ft | 132 kts | 271° |
| 2026-05-06 01:18 | 34.58554 | -87.21682 | 8002 ft | 131 kts | 271° |
| 2026-05-06 01:18 | 34.58654 | -87.22781 | 8001 ft | 130 kts | 270° |
| 2026-05-06 01:19 | 34.58752 | -87.23874 | 8002 ft | 130 kts | 270° |
| 2026-05-06 01:19 | 34.58851 | -87.24966 | 8001 ft | 130 kts | 270° |
| 2026-05-06 01:19 | 34.58948 | -87.26043 | 8001 ft | 130 kts | 270° |
| 2026-05-06 01:19 | 34.59047 | -87.27140 | 7999 ft | 131 kts | 270° |
| 2026-05-06 01:20 | 34.59146 | -87.28240 | 7999 ft | 130 kts | 270° |
| 2026-05-06 01:20 | 34.59244 | -87.29333 | 7994 ft | 130 kts | 270° |
| 2026-05-06 01:20 | 34.59340 | -87.30395 | 7990 ft | 127 kts | 270° |
| 2026-05-06 01:20 | 34.59436 | -87.31468 | 7986 ft | 127 kts | 270° |
| 2026-05-06 01:21 | 34.59532 | -87.32532 | 7986 ft | 128 kts | 270° |
| 2026-05-06 01:21 | 34.59628 | -87.33614 | 7984 ft | 129 kts | 271° |
| 2026-05-06 01:21 | 34.59725 | -87.34693 | 7981 ft | 128 kts | 271° |
| 2026-05-06 01:21 | 34.59821 | -87.35766 | 7983 ft | 127 kts | 271° |
| 2026-05-06 01:22 | 34.59916 | -87.36840 | 7982 ft | 128 kts | 271° |
| 2026-05-06 01:22 | 34.60011 | -87.37900 | 7986 ft | 128 kts | 271° |
| 2026-05-06 01:22 | 34.60108 | -87.38986 | 7986 ft | 130 kts | 270° |
| 2026-05-06 01:22 | 34.60172 | -87.39708 | 7988 ft | 130 kts | 271° |
| 2026-05-06 01:23 | 34.60270 | -87.40807 | 7990 ft | 131 kts | 270° |
| 2026-05-06 01:23 | 34.60367 | -87.41912 | 7992 ft | 131 kts | 271° |
| 2026-05-06 01:23 | 34.60464 | -87.42998 | 7987 ft | 130 kts | 270° |
| 2026-05-06 01:23 | 34.60563 | -87.44091 | 7988 ft | 130 kts | 270° |
| 2026-05-06 01:24 | 34.60660 | -87.45184 | 7986 ft | 130 kts | 270° |
| 2026-05-06 01:24 | 34.60755 | -87.46262 | 7985 ft | 129 kts | 270° |
| 2026-05-06 01:24 | 34.60850 | -87.47348 | 7985 ft | 128 kts | 270° |
| 2026-05-06 01:24 | 34.60944 | -87.48414 | 7983 ft | 128 kts | 270° |
| 2026-05-06 01:25 | 34.61039 | -87.49491 | 7980 ft | 127 kts | 270° |
| 2026-05-06 01:25 | 34.61134 | -87.50565 | 7981 ft | 127 kts | 270° |
| 2026-05-06 01:25 | 34.61228 | -87.51628 | 7977 ft | 126 kts | 270° |
| 2026-05-06 01:25 | 34.61319 | -87.52676 | 7981 ft | 127 kts | 270° |
| 2026-05-06 01:26 | 34.61413 | -87.53734 | 7981 ft | 127 kts | 270° |
| 2026-05-06 01:26 | 34.61505 | -87.54806 | 7978 ft | 128 kts | 270° |
| 2026-05-06 01:26 | 34.61602 | -87.55887 | 7978 ft | 128 kts | 270° |
| 2026-05-06 01:26 | 34.61695 | -87.56953 | 7980 ft | 128 kts | 270° |
| 2026-05-06 01:27 | 34.61789 | -87.58031 | 7979 ft | 128 kts | 271° |
| 2026-05-06 01:27 | 34.61883 | -87.59110 | 7977 ft | 129 kts | 270° |
| 2026-05-06 01:27 | 34.61978 | -87.60189 | 7976 ft | 127 kts | 270° |
| 2026-05-06 01:27 | 34.62069 | -87.61245 | 7980 ft | 127 kts | 270° |
| 2026-05-06 01:28 | 34.62164 | -87.62322 | 7980 ft | 128 kts | 270° |
| 2026-05-06 01:28 | 34.62258 | -87.63404 | 7980 ft | 128 kts | 270° |
| 2026-05-06 01:28 | 34.62351 | -87.64471 | 7983 ft | 126 kts | 270° |
| 2026-05-06 01:28 | 34.62442 | -87.65517 | 7982 ft | 125 kts | 271° |
| 2026-05-06 01:29 | 34.62533 | -87.66568 | 7978 ft | 124 kts | 271° |
| 2026-05-06 01:29 | 34.62625 | -87.67613 | 7977 ft | 124 kts | 270° |
| 2026-05-06 01:29 | 34.62713 | -87.68645 | 7978 ft | 125 kts | 270° |
| 2026-05-06 01:29 | 34.62805 | -87.69700 | 7977 ft | 125 kts | 270° |
| 2026-05-06 01:30 | 34.62896 | -87.70762 | 7978 ft | 127 kts | 271° |
| 2026-05-06 01:30 | 34.62987 | -87.71817 | 7981 ft | 127 kts | 271° |
| 2026-05-06 01:30 | 34.63078 | -87.72865 | 7985 ft | 119 kts | 271° |
| 2026-05-06 01:30 | 34.63166 | -87.73887 | 7976 ft | 123 kts | 272° |
| 2026-05-06 01:31 | 34.63251 | -87.74885 | 7982 ft | 121 kts | 270° |
| 2026-05-06 01:31 | 34.63339 | -87.75898 | 7982 ft | 121 kts | 270° |
| 2026-05-06 01:31 | 34.63429 | -87.76925 | 7978 ft | 122 kts | 270° |
| 2026-05-06 01:31 | 34.63517 | -87.77970 | 7977 ft | 125 kts | 270° |
| 2026-05-06 01:32 | 34.63606 | -87.79012 | 7985 ft | 126 kts | 270° |
| 2026-05-06 01:32 | 34.63697 | -87.80077 | 7983 ft | 127 kts | 270° |
| 2026-05-06 01:32 | 34.63786 | -87.81143 | 7982 ft | 126 kts | 270° |
| 2026-05-06 01:32 | 34.63881 | -87.82215 | 7976 ft | 128 kts | 271° |
| 2026-05-06 01:33 | 34.63970 | -87.83251 | 7971 ft | 124 kts | 271° |
| 2026-05-06 01:33 | 34.64059 | -87.84297 | 7978 ft | 126 kts | 270° |
| 2026-05-06 01:33 | 34.64149 | -87.85359 | 7976 ft | 126 kts | 271° |
| 2026-05-06 01:33 | 34.64240 | -87.86421 | 7979 ft | 126 kts | 271° |
| 2026-05-06 01:34 | 34.64330 | -87.87480 | 7979 ft | 128 kts | 271° |
| 2026-05-06 01:34 | 34.64422 | -87.88560 | 7977 ft | 128 kts | 270° |
| 2026-05-06 01:34 | 34.64513 | -87.89641 | 7978 ft | 129 kts | 270° |
| 2026-05-06 01:34 | 34.64604 | -87.90726 | 7977 ft | 129 kts | 270° |
| 2026-05-06 01:35 | 34.64696 | -87.91805 | 7975 ft | 129 kts | 270° |
| 2026-05-06 01:35 | 34.64789 | -87.92900 | 7977 ft | 129 kts | 270° |
| 2026-05-06 01:35 | 34.64880 | -87.93972 | 7976 ft | 129 kts | 270° |
| 2026-05-06 01:35 | 34.64970 | -87.95059 | 7974 ft | 129 kts | 270° |
| 2026-05-06 01:36 | 34.65063 | -87.96112 | 7974 ft | 123 kts | 270° |
| 2026-05-06 01:36 | 34.65148 | -87.97135 | 7964 ft | 122 kts | 270° |
| 2026-05-06 01:36 | 34.65235 | -87.98176 | 7962 ft | 125 kts | 270° |
| 2026-05-06 01:36 | 34.65322 | -87.99210 | 7971 ft | 124 kts | 270° |
| 2026-05-06 01:37 | 34.65409 | -88.00260 | 7971 ft | 125 kts | 270° |
| 2026-05-06 01:37 | 34.65497 | -88.01315 | 7972 ft | 126 kts | 270° |
| 2026-05-06 01:37 | 34.65587 | -88.02380 | 7968 ft | 127 kts | 270° |
| 2026-05-06 01:37 | 34.65676 | -88.03438 | 7966 ft | 126 kts | 270° |
| 2026-05-06 01:38 | 34.65765 | -88.04505 | 7968 ft | 127 kts | 270° |
| 2026-05-06 01:38 | 34.65855 | -88.05584 | 7964 ft | 129 kts | 270° |
| 2026-05-06 01:38 | 34.65946 | -88.06666 | 7966 ft | 128 kts | 270° |
| 2026-05-06 01:38 | 34.66035 | -88.07733 | 7963 ft | 128 kts | 270° |
| 2026-05-06 01:39 | 34.66125 | -88.08822 | 7966 ft | 129 kts | 271° |
| 2026-05-06 01:39 | 34.66215 | -88.09893 | 7962 ft | 128 kts | 270° |
| 2026-05-06 01:39 | 34.66304 | -88.10973 | 7962 ft | 129 kts | 270° |
| 2026-05-06 01:39 | 34.66394 | -88.12059 | 7961 ft | 128 kts | 270° |
| 2026-05-06 01:40 | 34.66484 | -88.13146 | 7961 ft | 129 kts | 270° |
| 2026-05-06 01:40 | 34.66574 | -88.14232 | 7959 ft | 129 kts | 270° |
| 2026-05-06 01:40 | 34.66663 | -88.15302 | 7960 ft | 128 kts | 270° |
| 2026-05-06 01:40 | 34.66753 | -88.16384 | 7959 ft | 128 kts | 270° |
| 2026-05-06 01:41 | 34.66840 | -88.17446 | 7958 ft | 128 kts | 270° |
| 2026-05-06 01:41 | 34.66929 | -88.18522 | 7958 ft | 128 kts | 270° |
| 2026-05-06 01:41 | 34.67017 | -88.19601 | 7958 ft | 128 kts | 270° |
| 2026-05-06 01:41 | 34.67107 | -88.20681 | 7960 ft | 128 kts | 270° |
| 2026-05-06 01:42 | 34.67195 | -88.21759 | 7961 ft | 129 kts | 270° |
| 2026-05-06 01:42 | 34.67283 | -88.22831 | 7960 ft | 129 kts | 270° |
| 2026-05-06 01:42 | 34.67372 | -88.23915 | 7960 ft | 129 kts | 270° |
| 2026-05-06 01:42 | 34.67461 | -88.24996 | 7962 ft | 129 kts | 270° |
| 2026-05-06 01:43 | 34.67550 | -88.26084 | 7962 ft | 129 kts | 270° |
| 2026-05-06 01:43 | 34.67638 | -88.27165 | 7963 ft | 129 kts | 270° |
| 2026-05-06 01:43 | 34.67727 | -88.28254 | 7960 ft | 129 kts | 270° |
| 2026-05-06 01:43 | 34.67818 | -88.29343 | 7956 ft | 128 kts | 270° |
| 2026-05-06 01:44 | 34.67904 | -88.30418 | 7957 ft | 127 kts | 270° |
| 2026-05-06 01:44 | 34.67990 | -88.31479 | 7954 ft | 128 kts | 270° |
| 2026-05-06 01:44 | 34.68077 | -88.32553 | 7957 ft | 127 kts | 270° |
| 2026-05-06 01:44 | 34.68165 | -88.33633 | 7957 ft | 128 kts | 270° |
| 2026-05-06 01:45 | 34.68252 | -88.34706 | 7956 ft | 127 kts | 270° |
| 2026-05-06 01:45 | 34.68339 | -88.35768 | 7957 ft | 128 kts | 270° |
| 2026-05-06 01:45 | 34.68426 | -88.36845 | 7955 ft | 128 kts | 270° |
| 2026-05-06 01:45 | 34.68512 | -88.37925 | 7955 ft | 128 kts | 270° |
| 2026-05-06 01:46 | 34.68600 | -88.38997 | 7957 ft | 129 kts | 270° |
| 2026-05-06 01:46 | 34.68688 | -88.40086 | 7958 ft | 129 kts | 270° |
| 2026-05-06 01:46 | 34.68775 | -88.41178 | 7957 ft | 130 kts | 270° |
| 2026-05-06 01:46 | 34.68863 | -88.42268 | 7958 ft | 130 kts | 270° |
| 2026-05-06 01:47 | 34.68950 | -88.43362 | 7957 ft | 130 kts | 270° |
| 2026-05-06 01:47 | 34.69039 | -88.44452 | 7956 ft | 130 kts | 270° |
| 2026-05-06 01:47 | 34.69127 | -88.45544 | 7959 ft | 130 kts | 270° |
| 2026-05-06 01:47 | 34.69212 | -88.46615 | 7960 ft | 129 kts | 270° |
| 2026-05-06 01:48 | 34.69299 | -88.47702 | 7953 ft | 128 kts | 270° |
| 2026-05-06 01:48 | 34.69386 | -88.48783 | 7954 ft | 128 kts | 270° |
| 2026-05-06 01:48 | 34.69472 | -88.49865 | 7955 ft | 129 kts | 270° |
| 2026-05-06 01:48 | 34.69559 | -88.50950 | 7954 ft | 129 kts | 270° |
| 2026-05-06 01:49 | 34.69644 | -88.52022 | 7956 ft | 129 kts | 270° |
| 2026-05-06 01:49 | 34.69730 | -88.53104 | 7954 ft | 129 kts | 270° |
| 2026-05-06 01:49 | 34.69817 | -88.54191 | 7956 ft | 129 kts | 270° |
| 2026-05-06 01:49 | 34.69904 | -88.55282 | 7951 ft | 129 kts | 270° |
| 2026-05-06 01:50 | 34.69989 | -88.56361 | 7956 ft | 130 kts | 271° |
| 2026-05-06 01:50 | 34.70076 | -88.57460 | 7960 ft | 130 kts | 271° |
| 2026-05-06 01:50 | 34.70162 | -88.58543 | 7955 ft | 130 kts | 271° |
| 2026-05-06 01:50 | 34.70249 | -88.59651 | 7958 ft | 130 kts | 271° |
| 2026-05-06 01:51 | 34.70320 | -88.60539 | 7956 ft | 130 kts | 271° |
| 2026-05-06 01:51 | 34.70407 | -88.61635 | 7955 ft | 130 kts | 270° |
| 2026-05-06 01:51 | 34.70493 | -88.62730 | 7957 ft | 130 kts | 271° |
| 2026-05-06 01:51 | 34.70579 | -88.63829 | 7954 ft | 131 kts | 270° |
| 2026-05-06 01:52 | 34.70665 | -88.64927 | 7956 ft | 130 kts | 270° |
| 2026-05-06 01:52 | 34.70751 | -88.66021 | 7955 ft | 130 kts | 270° |
| 2026-05-06 01:52 | 34.70836 | -88.67102 | 7955 ft | 129 kts | 270° |
| 2026-05-06 01:52 | 34.70921 | -88.68195 | 7956 ft | 130 kts | 270° |
| 2026-05-06 01:53 | 34.71007 | -88.69289 | 7959 ft | 130 kts | 270° |
| 2026-05-06 01:53 | 34.71093 | -88.70388 | 7956 ft | 131 kts | 270° |
| 2026-05-06 01:53 | 34.71178 | -88.71476 | 7958 ft | 131 kts | 270° |
| 2026-05-06 01:53 | 34.71265 | -88.72585 | 7957 ft | 131 kts | 270° |
| 2026-05-06 01:54 | 34.71350 | -88.73691 | 7959 ft | 131 kts | 270° |
| 2026-05-06 01:54 | 34.71436 | -88.74782 | 7960 ft | 131 kts | 270° |
| 2026-05-06 01:54 | 34.71522 | -88.75889 | 7958 ft | 131 kts | 270° |
| 2026-05-06 01:54 | 34.71607 | -88.76992 | 7954 ft | 131 kts | 270° |
| 2026-05-06 01:55 | 34.71693 | -88.78089 | 7953 ft | 130 kts | 270° |
| 2026-05-06 01:55 | 34.71777 | -88.79186 | 7951 ft | 130 kts | 271° |
| 2026-05-06 01:55 | 34.71862 | -88.80264 | 7952 ft | 129 kts | 270° |
| 2026-05-06 01:55 | 34.71945 | -88.81355 | 7950 ft | 129 kts | 270° |
| 2026-05-06 01:56 | 34.72029 | -88.82446 | 7953 ft | 129 kts | 271° |
| 2026-05-06 01:56 | 34.72113 | -88.83541 | 7952 ft | 130 kts | 270° |
| 2026-05-06 01:56 | 34.72197 | -88.84629 | 7954 ft | 131 kts | 270° |
| 2026-05-06 01:56 | 34.72282 | -88.85737 | 7954 ft | 131 kts | 271° |
| 2026-05-06 01:57 | 34.72367 | -88.86840 | 7952 ft | 131 kts | 271° |
| 2026-05-06 01:57 | 34.72452 | -88.87942 | 7952 ft | 131 kts | 271° |
| 2026-05-06 01:57 | 34.72536 | -88.89042 | 7952 ft | 131 kts | 271° |
| 2026-05-06 01:57 | 34.72628 | -88.90242 | 7947 ft | 131 kts | 271° |
| 2026-05-06 01:58 | 34.72704 | -88.91237 | 7948 ft | 130 kts | 270° |
| 2026-05-06 01:58 | 34.72788 | -88.92336 | 7944 ft | 130 kts | 271° |
| 2026-05-06 01:58 | 34.72870 | -88.93421 | 7947 ft | 130 kts | 271° |
| 2026-05-06 01:58 | 34.72954 | -88.94515 | 7946 ft | 129 kts | 271° |
| 2026-05-06 01:59 | 34.73036 | -88.95582 | 8028 ft | 124 kts | 270° |
| 2026-05-06 01:59 | 34.73115 | -88.96634 | 8029 ft | 126 kts | 270° |
| 2026-05-06 01:59 | 34.73195 | -88.97685 | 8025 ft | 127 kts | 271° |
| 2026-05-06 01:59 | 34.73275 | -88.98761 | 8028 ft | 128 kts | 271° |
| 2026-05-06 02:00 | 34.73358 | -88.99839 | 8014 ft | 128 kts | 271° |
| 2026-05-06 02:00 | 34.73440 | -89.00921 | 8029 ft | 128 kts | 271° |
| 2026-05-06 02:00 | 34.73520 | -89.01989 | 8027 ft | 128 kts | 271° |
| 2026-05-06 02:00 | 34.73603 | -89.03076 | 8023 ft | 128 kts | 271° |
| 2026-05-06 02:01 | 34.73684 | -89.04161 | 8028 ft | 129 kts | 271° |
| 2026-05-06 02:01 | 34.73765 | -89.05233 | 8030 ft | 129 kts | 271° |
| 2026-05-06 02:01 | 34.73847 | -89.06323 | 8029 ft | 129 kts | 271° |
| 2026-05-06 02:01 | 34.73928 | -89.07395 | 8022 ft | 128 kts | 271° |
| 2026-05-06 02:02 | 34.74009 | -89.08479 | 8021 ft | 128 kts | 271° |
| 2026-05-06 02:02 | 34.74090 | -89.09553 | 8023 ft | 127 kts | 271° |
| 2026-05-06 02:02 | 34.74170 | -89.10629 | 8021 ft | 127 kts | 271° |
| 2026-05-06 02:02 | 34.74249 | -89.11693 | 8024 ft | 128 kts | 271° |
| 2026-05-06 02:03 | 34.74330 | -89.12774 | 8023 ft | 128 kts | 272° |
| 2026-05-06 02:03 | 34.74409 | -89.13844 | 8020 ft | 129 kts | 271° |
| 2026-05-06 02:03 | 34.74490 | -89.14929 | 8020 ft | 128 kts | 271° |
| 2026-05-06 02:03 | 34.74571 | -89.16012 | 8022 ft | 128 kts | 271° |
| 2026-05-06 02:04 | 34.74652 | -89.17095 | 8019 ft | 128 kts | 272° |
| 2026-05-06 02:04 | 34.74732 | -89.18165 | 8022 ft | 128 kts | 271° |
| 2026-05-06 02:04 | 34.74812 | -89.19252 | 8014 ft | 129 kts | 271° |
| 2026-05-06 02:04 | 34.74891 | -89.20325 | 8020 ft | 128 kts | 271° |
| 2026-05-06 02:05 | 34.74970 | -89.21404 | 8020 ft | 128 kts | 271° |
| 2026-05-06 02:05 | 34.75051 | -89.22492 | 8021 ft | 128 kts | 271° |
| 2026-05-06 02:05 | 34.75130 | -89.23562 | 8022 ft | 128 kts | 271° |
| 2026-05-06 02:05 | 34.75210 | -89.24646 | 8020 ft | 128 kts | 271° |
| 2026-05-06 02:06 | 34.75290 | -89.25726 | 8021 ft | 128 kts | 271° |
| 2026-05-06 02:06 | 34.75369 | -89.26807 | 8019 ft | 128 kts | 271° |
| 2026-05-06 02:06 | 34.75447 | -89.27882 | 8020 ft | 127 kts | 271° |
| 2026-05-06 02:06 | 34.75525 | -89.28946 | 8019 ft | 128 kts | 271° |
| 2026-05-06 02:07 | 34.75604 | -89.30025 | 8010 ft | 128 kts | 271° |
| 2026-05-06 02:07 | 34.75684 | -89.31107 | 8014 ft | 128 kts | 271° |
| 2026-05-06 02:07 | 34.75763 | -89.32191 | 8018 ft | 129 kts | 271° |
| 2026-05-06 02:07 | 34.75842 | -89.33275 | 8019 ft | 128 kts | 271° |
| 2026-05-06 02:08 | 34.75920 | -89.34346 | 8013 ft | 128 kts | 271° |
| 2026-05-06 02:08 | 34.75999 | -89.35428 | 8013 ft | 128 kts | 271° |
| 2026-05-06 02:08 | 34.76077 | -89.36510 | 8015 ft | 128 kts | 271° |
| 2026-05-06 02:08 | 34.76155 | -89.37577 | 8013 ft | 128 kts | 271° |
| 2026-05-06 02:09 | 34.76233 | -89.38660 | 8015 ft | 128 kts | 271° |
| 2026-05-06 02:09 | 34.76311 | -89.39743 | 8018 ft | 129 kts | 271° |
| 2026-05-06 02:09 | 34.76390 | -89.40831 | 8015 ft | 129 kts | 270° |
| 2026-05-06 02:09 | 34.76468 | -89.41906 | 8014 ft | 129 kts | 271° |
| 2026-05-06 02:10 | 34.76547 | -89.42995 | 8014 ft | 129 kts | 271° |
| 2026-05-06 02:10 | 34.76625 | -89.44087 | 8014 ft | 129 kts | 271° |
| 2026-05-06 02:10 | 34.76702 | -89.45161 | 8015 ft | 129 kts | 271° |
| 2026-05-06 02:10 | 34.76781 | -89.46250 | 8016 ft | 129 kts | 271° |
| 2026-05-06 02:11 | 34.76858 | -89.47336 | 8009 ft | 128 kts | 271° |
| 2026-05-06 02:11 | 34.76935 | -89.48402 | 8008 ft | 128 kts | 271° |
| 2026-05-06 02:11 | 34.77104 | -89.49470 | 8002 ft | 130 kts | 282° |
| 2026-05-06 02:11 | 34.77498 | -89.50487 | 8008 ft | 136 kts | 293° |
| 2026-05-06 02:12 | 34.78047 | -89.51433 | 8010 ft | 137 kts | 295° |
| 2026-05-06 02:12 | 34.78586 | -89.52384 | 7999 ft | 136 kts | 295° |
| 2026-05-06 02:12 | 34.79127 | -89.53334 | 8002 ft | 136 kts | 295° |
| 2026-05-06 02:12 | 34.79661 | -89.54271 | 8009 ft | 136 kts | 295° |
| 2026-05-06 02:13 | 34.80137 | -89.55108 | 8006 ft | 136 kts | 295° |
| 2026-05-06 02:13 | 34.80643 | -89.55996 | 8001 ft | 136 kts | 295° |
| 2026-05-06 02:13 | 34.81140 | -89.56869 | 8001 ft | 137 kts | 294° |
| 2026-05-06 02:13 | 34.81686 | -89.57827 | 8003 ft | 137 kts | 295° |
| 2026-05-06 02:14 | 34.82229 | -89.58782 | 8007 ft | 137 kts | 295° |
| 2026-05-06 02:14 | 34.82773 | -89.59737 | 7998 ft | 137 kts | 295° |
| 2026-05-06 02:14 | 34.83315 | -89.60688 | 8007 ft | 136 kts | 295° |
| 2026-05-06 02:14 | 34.83856 | -89.61641 | 7997 ft | 137 kts | 295° |
| 2026-05-06 02:15 | 34.84396 | -89.62590 | 8001 ft | 136 kts | 295° |
| 2026-05-06 02:15 | 34.84938 | -89.63543 | 8001 ft | 136 kts | 295° |
| 2026-05-06 02:15 | 34.85471 | -89.64482 | 7992 ft | 137 kts | 295° |
| 2026-05-06 02:15 | 34.86016 | -89.65442 | 7995 ft | 137 kts | 295° |
| 2026-05-06 02:16 | 34.86560 | -89.66400 | 7990 ft | 138 kts | 295° |
| 2026-05-06 02:16 | 34.87107 | -89.67361 | 7995 ft | 138 kts | 294° |
| 2026-05-06 02:16 | 34.87652 | -89.68322 | 8003 ft | 137 kts | 294° |
| 2026-05-06 02:16 | 34.88188 | -89.69263 | 7997 ft | 136 kts | 294° |
| 2026-05-06 02:17 | 34.88725 | -89.70212 | 8001 ft | 136 kts | 294° |
| 2026-05-06 02:17 | 34.89267 | -89.71169 | 7999 ft | 137 kts | 294° |
| 2026-05-06 02:17 | 34.89810 | -89.72124 | 7996 ft | 137 kts | 294° |
| 2026-05-06 02:17 | 34.90353 | -89.73083 | 7991 ft | 137 kts | 294° |
| 2026-05-06 02:18 | 34.90892 | -89.74034 | 8001 ft | 137 kts | 294° |
| 2026-05-06 02:18 | 34.91435 | -89.74992 | 7992 ft | 137 kts | 294° |
| 2026-05-06 02:18 | 34.91979 | -89.75953 | 7997 ft | 137 kts | 294° |
| 2026-05-06 02:18 | 34.92517 | -89.76903 | 8001 ft | 138 kts | 294° |
| 2026-05-06 02:19 | 34.93063 | -89.77867 | 7999 ft | 138 kts | 294° |
| 2026-05-06 02:19 | 34.93612 | -89.78837 | 8001 ft | 138 kts | 294° |
| 2026-05-06 02:19 | 34.94151 | -89.79789 | 8002 ft | 138 kts | 294° |
| 2026-05-06 02:19 | 34.94697 | -89.80752 | 8003 ft | 137 kts | 294° |
| 2026-05-06 02:20 | 34.95773 | -89.82656 | 8003 ft | 137 kts | 294° |
| 2026-05-06 02:20 | 34.96313 | -89.83613 | 7999 ft | 137 kts | 294° |
| 2026-05-06 02:20 | 34.97005 | -89.84444 | 7990 ft | 153 kts | 323° |
| 2026-05-06 02:21 | 34.98143 | -89.84612 | 7833 ft | 177 kts | 348° |
| 2026-05-06 02:21 | 34.99385 | -89.84610 | 7629 ft | 180 kts | 348° |
| 2026-05-06 02:21 | 35.00630 | -89.84613 | 7414 ft | 177 kts | 348° |
| 2026-05-06 02:21 | 35.01860 | -89.84611 | 7195 ft | 176 kts | 348° |
| 2026-05-06 02:22 | 35.03084 | -89.84612 | 6981 ft | 175 kts | 348° |
| 2026-05-06 02:22 | 35.04288 | -89.84624 | 6768 ft | 174 kts | 348° |
| 2026-05-06 02:22 | 35.05508 | -89.84640 | 6555 ft | 175 kts | 348° |
| 2026-05-06 02:22 | 35.06728 | -89.84652 | 6373 ft | 175 kts | 348° |
| 2026-05-06 02:23 | 35.07957 | -89.84664 | 6157 ft | 176 kts | 348° |
| 2026-05-06 02:23 | 35.09175 | -89.84679 | 5925 ft | 178 kts | 348° |
| 2026-05-06 02:23 | 35.10420 | -89.84702 | 5705 ft | 179 kts | 348° |
| 2026-05-06 02:23 | 35.11671 | -89.84724 | 5480 ft | 179 kts | 348° |
| 2026-05-06 02:24 | 35.12921 | -89.84752 | 5265 ft | 179 kts | 348° |
| 2026-05-06 02:24 | 35.14161 | -89.84783 | 5048 ft | 181 kts | 348° |
| 2026-05-06 02:24 | 35.15427 | -89.84816 | 4829 ft | 181 kts | 348° |
| 2026-05-06 02:24 | 35.16692 | -89.84853 | 4611 ft | 181 kts | 348° |
| 2026-05-06 02:25 | 35.17936 | -89.84895 | 4385 ft | 179 kts | 347° |
| 2026-05-06 02:25 | 35.19016 | -89.85388 | 4087 ft | 156 kts | 305° |
| 2026-05-06 02:25 | 35.19424 | -89.86472 | 3791 ft | 135 kts | 269° |
| 2026-05-06 02:25 | 35.19543 | -89.87601 | 3513 ft | 136 kts | 268° |
| 2026-05-06 02:26 | 35.19677 | -89.88761 | 3248 ft | 138 kts | 268° |
| 2026-05-06 02:26 | 35.19816 | -89.89924 | 3038 ft | 139 kts | 268° |
| 2026-05-06 02:26 | 35.19966 | -89.91077 | 2983 ft | 133 kts | 268° |
| 2026-05-06 02:26 | 35.20115 | -89.92155 | 2973 ft | 128 kts | 268° |
| 2026-05-06 02:27 | 35.20270 | -89.93217 | 2968 ft | 124 kts | 268° |
| 2026-05-06 02:27 | 35.20428 | -89.94246 | 2970 ft | 122 kts | 268° |
| 2026-05-06 02:27 | 35.20590 | -89.95270 | 2991 ft | 122 kts | 268° |
| 2026-05-06 02:27 | 35.20661 | -89.96267 | 2988 ft | 109 kts | 244° |
| 2026-05-06 02:28 | 35.20139 | -89.96822 | 3004 ft | 104 kts | 207° |
| 2026-05-06 02:28 | 35.19474 | -89.97169 | 3004 ft | 103 kts | 206° |
| 2026-05-06 02:28 | 35.19023 | -89.97355 | 2996 ft | 104 kts | 204° |
| 2026-05-06 02:28 | 35.17990 | -89.97483 | 2820 ft | 119 kts | 192° |
| 2026-05-06 02:29 | 35.17431 | -89.97511 | 2719 ft | 123 kts | 189° |
| 2026-05-06 02:29 | 35.16590 | -89.97519 | 2559 ft | 117 kts | 188° |
| 2026-05-06 02:29 | 35.15541 | -89.97516 | 2360 ft | 108 kts | 188° |
| 2026-05-06 02:29 | 35.15043 | -89.97512 | 2262 ft | 104 kts | 187° |
| 2026-05-06 02:30 | 35.14339 | -89.97495 | 2136 ft | 101 kts | 187° |
| 2026-05-06 02:30 | 35.13674 | -89.97478 | 2026 ft | 90 kts | 188° |
| 2026-05-06 02:30 | 35.13069 | -89.97470 | 1904 ft | 84 kts | 187° |
| 2026-05-06 02:30 | 35.12489 | -89.97458 | 1795 ft | 85 kts | 186° |
| 2026-05-06 02:31 | 35.11893 | -89.97445 | 1685 ft | 86 kts | 186° |
| 2026-05-06 02:31 | 35.11282 | -89.97432 | 1564 ft | 89 kts | 185° |
| 2026-05-06 02:31 | 35.10661 | -89.97417 | 1444 ft | 89 kts | 185° |
| 2026-05-06 02:31 | 35.10033 | -89.97406 | 1331 ft | 95 kts | 185° |
| 2026-05-06 02:32 | 35.09368 | -89.97393 | 1196 ft | 95 kts | 183° |
| 2026-05-06 02:32 | 35.08695 | -89.97379 | 1063 ft | 99 kts | 182° |
| 2026-05-06 02:32 | 35.07996 | -89.97357 | 941 ft | 101 kts | 182° |
| 2026-05-06 02:32 | 35.07295 | -89.97345 | 795 ft | 103 kts | 180° |
| 2026-05-06 02:33 | 35.06565 | -89.97339 | 656 ft | 109 kts | 179° |
| 2026-05-06 02:33 | 35.06058 | -89.97322 | 537 ft | 109 kts | 179° |
| 2026-05-06 02:34 | 35.03978 | -89.97280 | 306 ft | 18 kts | 180° |
| 2026-05-06 02:34 | 35.03841 | -89.97272 | 309 ft | 22 kts | 163° |
| 2026-05-06 02:34 | 35.03804 | -89.97189 | 311 ft | 12 kts | 87° |
| 2026-05-06 02:34 | 35.03805 | -89.97146 | 311 ft | 0 kts | 87° |
| 2026-05-06 02:35 | 35.03843 | -89.97084 | 310 ft | 9 kts | 358° |
| 2026-05-06 02:35 | 35.04023 | -89.97094 | 304 ft | 40 kts | 357° |
| 2026-05-06 02:36 | 35.04299 | -89.97096 | 296 ft | 40 kts | 7° |
| 2026-05-06 02:36 | 35.04544 | -89.97060 | 294 ft | 28 kts | 358° |
| 2026-05-06 02:36 | 35.04729 | -89.97063 | 292 ft | 27 kts | 359° |
| 2026-05-06 02:36 | 35.04922 | -89.97069 | 289 ft | 28 kts | 359° |
| 2026-05-06 02:37 | 35.05121 | -89.97048 | 284 ft | 29 kts | 8° |
| 2026-05-06 02:37 | 35.05322 | -89.97012 | 279 ft | 30 kts | 10° |
| 2026-05-06 02:37 | 35.05523 | -89.96972 | 278 ft | 29 kts | 8° |
| 2026-05-06 02:37 | 35.05720 | -89.96935 | 276 ft | 29 kts | 9° |
| 2026-05-06 02:38 | 35.05881 | -89.96910 | 280 ft | 14 kts | 354° |
| 2026-05-06 02:38 | 35.05931 | -89.96980 | 280 ft | 13 kts | 269° |
| 2026-05-06 02:38 | 35.05933 | -89.97109 | 277 ft | 22 kts | 272° |
| 2026-05-06 02:38 | 35.05938 | -89.97318 | 277 ft | 24 kts | 272° |
| 2026-05-06 02:39 | 35.05945 | -89.97514 | 276 ft | 23 kts | 283° |
| 2026-05-06 02:39 | 35.05986 | -89.97698 | 272 ft | 21 kts | 282° |
| 2026-05-06 02:39 | 35.06026 | -89.97792 | 270 ft | 5 kts | 359° |
| 2026-05-06 02:39 | 35.06094 | -89.97787 | 268 ft | 19 kts | 1° |
| 2026-05-06 02:40 | 35.06291 | -89.97788 | 262 ft | 30 kts | 359° |
| 2026-05-06 02:40 | 35.06484 | -89.97790 | 262 ft | 23 kts | 359° |
| 2026-05-06 02:40 | 35.06574 | -89.97828 | 260 ft | 11 kts | 283° |
| 2026-05-06 02:40 | 35.06578 | -89.97928 | 260 ft | 13 kts | 274° |
| 2026-05-06 02:41 | 35.06591 | -89.98020 | 258 ft | 7 kts | 332° |
| 2026-05-06 02:41 | 35.06656 | -89.98020 | 257 ft | 11 kts | 2° |
| 2026-05-06 02:41 | 35.06730 | -89.98042 | 255 ft | 10 kts | 297° |
| 2026-05-06 02:41 | 35.06720 | -89.98103 | 254 ft | 0 kts | 199° |
| 2026-05-06 02:42 | 35.06707 | -89.98103 | 255 ft | 0 kts | 180° |